Time;durP1;ratioP1;P1;durP2;ratioP2;P2;SDS_P1;SDS_P2;PMS_P1;PMS_P2;Temp;Humidity;BMP_temperature;BMP_pressure;BME280_temperature;BME280_humidity;BME280_pressure;Samples;Min_cycle;Max_cycle;Signal;HPM_P1;HPM_P2
2022/09/29 00:00:32;;;;;;;8.30;7.90;;;;;;;15.44;84.52;92026.22;5128250;28;20765;-79
2022/09/29 00:02:57;;;;;;;9.00;8.50;;;;;;;15.53;85.22;92026.94;5126827;28;20227;-79
2022/09/29 00:05:23;;;;;;;10.27;9.20;;;;;;;15.35;86.50;91996.53;5130061;28;21208;-79
2022/09/29 00:07:48;;;;;;;10.03;9.43;;;;;;;15.04;89.49;91983.00;5126964;28;20228;-79
2022/09/29 00:10:14;;;;;;;9.47;8.77;;;;;;;15.38;88.61;92019.59;5129513;28;20192;-78
2022/09/29 00:12:39;;;;;;;9.03;8.43;;;;;;;15.32;89.30;92010.34;5127407;28;20241;-79
2022/09/29 00:15:06;;;;;;;14.40;8.60;;;;;;;15.06;91.29;91988.72;5128138;28;20850;-79
2022/09/29 00:17:31;;;;;;;9.40;8.80;;;;;;;15.23;91.64;92013.06;5130160;28;20234;-79
2022/09/29 00:19:56;;;;;;;9.13;8.50;;;;;;;14.74;92.00;91944.75;5130331;28;20183;-79
2022/09/29 00:22:22;;;;;;;9.27;8.60;;;;;;;15.29;89.32;91989.94;5129234;28;20215;-79
2022/09/29 00:24:47;;;;;;;9.93;9.23;;;;;;;15.04;92.29;92014.56;5132350;28;20190;-79
2022/09/29 00:27:17;;;;;;;9.20;8.57;;;;;;;14.93;92.87;92002.88;5128928;28;21217;-81
2022/09/29 00:29:42;;;;;;;11.10;9.13;;;;;;;14.89;93.77;92007.25;5132020;28;20196;-79
2022/09/29 00:32:08;;;;;;;10.00;9.07;;;;;;;14.79;95.25;92015.47;5129979;28;20222;-79
2022/09/29 00:34:33;;;;;;;12.43;9.30;;;;;;;14.67;95.33;91991.75;5131928;27;20636;-79
2022/09/29 00:36:59;;;;;;;10.57;9.67;;;;;;;14.70;96.22;92001.63;5130492;28;20239;-79
2022/09/29 00:39:24;;;;;;;10.80;9.90;;;;;;;14.57;96.33;91985.00;5131810;28;20216;-80
2022/09/29 00:41:50;;;;;;;11.17;10.00;;;;;;;14.52;97.50;92005.44;5130262;27;20254;-79
2022/09/29 00:44:18;;;;;;;11.83;10.70;;;;;;;14.39;98.09;91997.47;5131606;28;20217;-80
2022/09/29 00:46:55;;;;;;;16.93;11.67;;;;;;;14.44;98.43;91999.16;5129449;28;20255;-80
2022/09/29 00:49:33;;;;;;;24.67;10.63;;;;;;;14.33;98.68;91969.81;5127621;28;20178;-79
2022/09/29 00:52:33;;;;;;;17.53;10.67;;;;;;;13.99;99.63;91937.69;5129956;28;20242;-79
2022/09/29 00:55:14;;;;;;;11.70;9.60;;;;;;;14.15;100.00;92002.47;5116624;28;20218;-79
2022/09/29 00:57:48;;;;;;;10.57;9.47;;;;;;;14.17;99.48;92007.41;5129734;28;20222;-79
2022/09/29 01:00:15;;;;;;;10.57;9.67;;;;;;;14.15;98.95;92010.34;5131009;28;20257;-79
2022/09/29 01:02:49;;;;;;;9.77;8.97;;;;;;;14.21;99.03;92000.47;5128747;28;20766;-80
2022/09/29 01:05:22;;;;;;;10.40;9.67;;;;;;;14.31;98.37;92008.78;5147099;27;20218;-79
2022/09/29 01:07:49;;;;;;;10.17;9.33;;;;;;;14.39;98.42;91994.84;5131458;27;20256;-79
2022/09/29 01:10:16;;;;;;;9.20;8.63;;;;;;;14.38;98.13;92009.03;5131392;27;20268;-79
2022/09/29 01:12:44;;;;;;;9.40;8.90;;;;;;;14.46;96.68;91979.34;5129876;28;20211;-80
2022/09/29 01:15:10;;;;;;;9.07;8.53;;;;;;;14.56;94.32;91977.44;5129988;28;20230;-79
2022/09/29 01:17:36;;;;;;;8.90;8.37;;;;;;;13.92;96.64;91963.63;5129745;28;20235;-79
2022/09/29 01:20:12;;;;;;;9.67;8.97;;;;;;;13.96;96.49;91965.31;5129128;28;20200;-79
2022/09/29 01:22:55;;;;;;;9.00;8.37;;;;;;;14.32;95.76;92001.66;5129510;28;20982;-79
2022/09/29 01:26:08;;;;;;;10.57;9.67;;;;;;;14.17;95.86;91996.91;5130680;28;20210;-80
2022/09/29 01:29:05;;;;;;;9.90;9.20;;;;;;;14.23;96.03;91990.38;5129983;28;20254;-78
2022/09/29 01:32:01;;;;;;;9.97;9.27;;;;;;;14.14;96.78;91995.69;5131203;28;20187;-79
2022/09/29 01:34:49;;;;;;;9.83;9.33;;;;;;;14.05;96.02;91999.44;5129435;28;20233;-79
2022/09/29 01:37:17;;;;;;;9.80;9.20;;;;;;;14.39;94.09;91989.59;5130015;28;20223;-79
2022/09/29 01:40:14;;;;;;;9.13;8.27;;;;;;;14.61;90.88;91985.16;5131446;28;20205;-79
2022/09/29 01:43:01;;;;;;;9.53;8.90;;;;;;;14.19;95.76;92000.00;5130434;28;20242;-79
2022/09/29 01:45:39;;;;;;;8.83;8.33;;;;;;;14.20;95.17;92009.41;5129919;28;20198;-79
2022/09/29 01:48:10;;;;;;;9.33;8.73;;;;;;;14.18;94.58;92020.22;5128875;28;20230;-79
2022/09/29 01:50:45;;;;;;;9.47;8.63;;;;;;;14.09;94.56;92006.34;5131271;28;20187;-79
2022/09/29 01:53:17;;;;;;;9.90;9.33;;;;;;;14.26;93.52;92003.69;5129329;28;20218;-79
2022/09/29 01:55:49;;;;;;;8.83;8.37;;;;;;;13.93;96.76;91992.19;5128643;28;20199;-79
2022/09/29 01:58:25;;;;;;;10.17;9.60;;;;;;;13.88;98.96;92021.22;5128216;28;20224;-79
2022/09/29 02:00:55;;;;;;;8.73;8.27;;;;;;;13.69;98.21;92023.44;5129810;28;20257;-79
2022/09/29 02:03:29;;;;;;;8.73;8.33;;;;;;;13.89;98.30;92022.78;5129200;28;20327;-79
2022/09/29 02:06:00;;;;;;;9.57;9.07;;;;;;;13.90;98.07;92018.31;5127706;28;20201;-80
2022/09/29 02:08:25;;;;;;;9.50;9.10;;;;;;;13.87;98.74;92024.94;5130085;28;20226;-79
2022/09/29 02:11:00;;;;;;;11.03;10.07;;;;;;;13.92;98.93;92011.66;5129678;28;21238;-79
2022/09/29 02:13:28;;;;;;;10.57;9.53;;;;;;;13.85;99.29;92011.34;5130163;28;20244;-80
2022/09/29 02:15:56;;;;;;;11.07;10.33;;;;;;;13.79;99.62;92024.97;5127994;28;20241;-80
2022/09/29 02:18:26;;;;;;;10.37;9.87;;;;;;;13.63;100.00;91993.22;5128667;28;20226;-79
2022/09/29 02:20:51;;;;;;;9.70;9.07;;;;;;;13.54;100.00;91994.28;5128618;28;20222;-79
2022/09/29 02:23:17;;;;;;;9.70;9.20;;;;;;;13.84;100.00;92041.31;5129032;28;20215;-79
2022/09/29 02:25:45;;;;;;;10.23;9.70;;;;;;;13.56;100.00;92021.75;5128358;28;20194;-79
2022/09/29 02:28:12;;;;;;;9.57;9.00;;;;;;;13.73;100.00;92024.34;5129053;28;20235;-79
2022/09/29 02:30:37;;;;;;;9.43;8.73;;;;;;;13.67;100.00;92036.09;5129780;28;20199;-80
2022/09/29 02:33:02;;;;;;;9.27;8.87;;;;;;;13.68;100.00;92023.75;5127964;28;20211;-79
2022/09/29 02:35:50;;;;;;;10.33;9.63;;;;;;;13.68;99.10;92034.25;5128555;28;20225;-79
2022/09/29 02:38:41;;;;;;;10.40;9.50;;;;;;;13.61;98.30;92005.84;5127556;28;20340;-79
2022/09/29 02:41:16;;;;;;;9.03;8.33;;;;;;;13.92;98.52;92043.16;5128877;28;20187;-79
2022/09/29 02:43:56;;;;;;;11.10;10.10;;;;;;;13.83;99.00;92037.16;5129117;28;20250;-79
2022/09/29 02:46:33;;;;;;;10.43;9.57;;;;;;;13.82;100.00;92024.34;5127651;28;20183;-79
2022/09/29 02:49:07;;;;;;;9.43;8.93;;;;;;;13.76;100.00;92041.34;5129378;28;20238;-79
2022/09/29 02:51:39;;;;;;;9.87;9.23;;;;;;;13.77;100.00;92046.25;5125985;28;20223;-79
2022/09/29 02:54:26;;;;;;;9.57;9.00;;;;;;;13.74;100.00;92041.63;5126847;28;21327;-79
2022/09/29 02:57:29;;;;;;;10.40;9.60;;;;;;;13.58;100.00;92042.41;5129333;28;20219;-79
2022/09/29 03:00:10;;;;;;;9.27;8.67;;;;;;;13.54;100.00;92052.75;5127946;28;20203;-79
2022/09/29 03:02:38;;;;;;;10.13;9.33;;;;;;;13.60;100.00;92043.66;5126714;28;20756;-80
2022/09/29 03:05:12;;;;;;;9.23;8.53;;;;;;;13.60;100.00;92041.03;5129514;28;20332;-78
2022/09/29 03:07:38;;;;;;;9.40;8.60;;;;;;;13.66;100.00;92029.31;5128240;28;20234;-78
2022/09/29 03:10:05;;;;;;;9.63;8.97;;;;;;;13.60;100.00;92004.31;5129843;28;20183;-79
2022/09/29 03:12:31;;;;;;;9.97;9.37;;;;;;;13.53;100.00;91977.78;5128415;28;20232;-79
2022/09/29 03:14:56;;;;;;;10.23;9.53;;;;;;;13.17;100.00;91966.88;5129243;28;20235;-79
2022/09/29 03:17:22;;;;;;;11.73;10.10;;;;;;;13.47;100.00;91983.50;5125550;28;20220;-79
2022/09/29 03:19:47;;;;;;;11.13;10.30;;;;;;;13.23;100.00;91973.50;5129791;28;20766;-78
2022/09/29 03:22:13;;;;;;;10.87;10.17;;;;;;;13.51;100.00;91993.03;5125156;28;20227;-79
2022/09/29 03:24:38;;;;;;;10.17;9.47;;;;;;;13.60;100.00;91982.56;5129140;28;20208;-79
2022/09/29 03:27:05;;;;;;;10.63;9.70;;;;;;;13.32;100.00;91997.88;5128793;28;20219;-78
2022/09/29 03:29:30;;;;;;;10.10;9.47;;;;;;;13.39;100.00;92013.88;5129550;28;20203;-79
2022/09/29 03:31:57;;;;;;;10.80;10.20;;;;;;;13.34;100.00;91979.97;5126784;28;20938;-78
2022/09/29 03:34:23;;;;;;;9.90;9.03;;;;;;;13.67;99.29;92030.84;5127576;28;20188;-79
2022/09/29 03:36:48;;;;;;;10.70;10.10;;;;;;;13.54;100.00;92029.13;5128163;28;20262;-79
2022/09/29 03:39:13;;;;;;;10.20;9.60;;;;;;;13.34;100.00;92006.19;5129216;28;20197;-78
2022/09/29 03:41:39;;;;;;;10.77;9.70;;;;;;;13.32;100.00;92023.31;5127078;28;20200;-78
2022/09/29 03:44:04;;;;;;;10.10;9.43;;;;;;;12.87;100.00;91991.34;5129754;28;20238;-75
2022/09/29 03:46:29;;;;;;;10.97;10.37;;;;;;;13.15;100.00;92033.78;5127627;28;20195;-76
2022/09/29 03:48:55;;;;;;;11.43;10.20;;;;;;;13.25;100.00;92036.88;5128093;28;20968;-72
2022/09/29 03:51:20;;;;;;;12.30;9.57;;;;;;;13.28;100.00;92036.25;5128715;28;20207;-73
2022/09/29 03:53:45;;;;;;;11.00;10.20;;;;;;;13.19;100.00;92022.38;5131830;28;20231;-73
2022/09/29 03:56:11;;;;;;;11.33;10.57;;;;;;;13.31;100.00;92038.25;5130397;28;20211;-73
2022/09/29 03:58:36;;;;;;;11.10;10.10;;;;;;;13.24;100.00;92031.94;5130116;28;20253;-73
2022/09/29 04:01:02;;;;;;;11.33;10.37;;;;;;;13.11;100.00;92043.31;5132054;28;20243;-74
2022/09/29 04:03:28;;;;;;;10.83;10.03;;;;;;;13.13;100.00;92035.94;5132104;27;20280;-75
2022/09/29 04:05:53;;;;;;;11.30;10.37;;;;;;;13.09;100.00;92030.53;5131556;28;20191;-75
2022/09/29 04:08:18;;;;;;;11.30;10.30;;;;;;;13.14;100.00;92040.09;5130047;28;20218;-73
2022/09/29 04:10:47;;;;;;;11.90;11.10;;;;;;;13.06;100.00;92041.63;5130068;28;20191;-71
2022/09/29 04:13:13;;;;;;;10.53;9.83;;;;;;;13.14;100.00;92048.72;5130154;28;20223;-71
2022/09/29 04:15:39;;;;;;;11.60;10.57;;;;;;;13.15;100.00;92039.81;5129647;28;20207;-71
2022/09/29 04:18:05;;;;;;;10.90;10.10;;;;;;;13.14;100.00;92037.47;5130709;28;20215;-75
2022/09/29 04:20:30;;;;;;;11.03;10.10;;;;;;;12.87;100.00;92007.06;5130969;28;20195;-71
2022/09/29 04:22:56;;;;;;;10.80;9.90;;;;;;;13.10;100.00;92039.94;5132401;28;20233;-71
2022/09/29 04:25:21;;;;;;;14.13;11.20;;;;;;;12.98;100.00;92055.44;5129492;28;20210;-72
2022/09/29 04:27:46;;;;;;;10.60;9.70;;;;;;;13.00;100.00;92042.06;5129799;28;20290;-72
2022/09/29 04:30:12;;;;;;;11.17;10.27;;;;;;;13.02;100.00;92009.25;5128632;28;20206;-72
2022/09/29 04:32:37;;;;;;;10.97;9.93;;;;;;;13.03;100.00;92026.53;5129888;28;20890;-77
2022/09/29 04:35:03;;;;;;;11.87;10.87;;;;;;;12.94;100.00;92016.00;5131183;28;20316;-75
2022/09/29 04:37:30;;;;;;;10.97;9.97;;;;;;;13.07;100.00;92037.16;5131730;28;20248;-77
2022/09/29 04:39:55;;;;;;;11.60;10.60;;;;;;;12.96;100.00;92034.03;5130157;28;20180;-76
2022/09/29 04:42:21;;;;;;;11.13;10.33;;;;;;;12.84;100.00;92023.41;5130431;28;20241;-76
2022/09/29 04:44:47;;;;;;;11.63;10.63;;;;;;;12.86;100.00;92037.72;5127937;28;20214;-80
2022/09/29 04:47:12;;;;;;;11.27;10.40;;;;;;;12.66;100.00;91991.16;5130354;28;20219;-76
2022/09/29 04:49:38;;;;;;;10.90;10.27;;;;;;;13.06;100.00;92039.00;5131109;28;20209;-75
2022/09/29 04:52:03;;;;;;;11.37;10.33;;;;;;;13.04;100.00;92038.56;5126209;27;20211;-73
2022/09/29 04:54:33;;;;;;;11.33;10.57;;;;;;;12.64;100.00;91966.34;5128502;27;20217;-72
2022/09/29 04:57:00;;;;;;;12.03;11.13;;;;;;;13.10;100.00;92037.34;5130260;27;20227;-74
2022/09/29 04:59:26;;;;;;;11.47;10.30;;;;;;;13.01;100.00;92023.47;5128964;28;20207;-75
2022/09/29 05:01:51;;;;;;;11.47;10.60;;;;;;;13.08;100.00;92034.22;5126626;27;20264;-75
2022/09/29 05:04:16;;;;;;;12.33;10.13;;;;;;;13.12;100.00;92032.53;5127373;27;20180;-75
2022/09/29 05:06:42;;;;;;;13.50;10.53;;;;;;;13.11;100.00;92022.34;5128026;27;20183;-74
2022/09/29 05:09:07;;;;;;;19.13;11.30;;;;;;;13.15;100.00;92018.84;5128088;28;20190;-74
2022/09/29 05:11:33;;;;;;;11.80;10.43;;;;;;;13.34;100.00;92024.53;5127382;28;20183;-76
2022/09/29 05:13:59;;;;;;;10.90;10.07;;;;;;;13.25;100.00;92007.25;5129643;28;20981;-74
2022/09/29 05:16:25;;;;;;;10.03;9.10;;;;;;;13.28;100.00;92004.00;5130804;27;20210;-75
2022/09/29 05:18:50;;;;;;;15.37;11.30;;;;;;;13.42;100.00;92034.25;5129772;28;20237;-75
2022/09/29 05:21:16;;;;;;;11.47;10.23;;;;;;;13.45;100.00;92028.38;5129501;28;20215;-74
2022/09/29 05:23:41;;;;;;;10.60;9.70;;;;;;;13.64;100.00;92026.22;5129990;27;20279;-74
2022/09/29 05:26:10;;;;;;;11.03;10.20;;;;;;;13.90;100.00;92021.69;5130272;28;20217;-74
2022/09/29 05:28:38;;;;;;;11.17;10.10;;;;;;;13.91;100.00;92036.38;5130635;28;20273;-75
2022/09/29 05:31:06;;;;;;;11.03;9.87;;;;;;;14.14;100.00;92021.94;5130414;28;20186;-75
2022/09/29 05:33:32;;;;;;;10.67;9.77;;;;;;;14.30;99.88;92022.22;5130278;28;20693;-75
2022/09/29 05:35:57;;;;;;;12.97;9.77;;;;;;;14.36;99.95;92031.47;5130524;27;20225;-75
2022/09/29 05:38:23;;;;;;;11.13;10.13;;;;;;;14.60;97.65;92015.16;5130021;28;20227;-73
2022/09/29 05:40:49;;;;;;;10.43;9.57;;;;;;;14.56;97.27;92008.97;5129716;28;20221;-74
2022/09/29 05:43:15;;;;;;;13.27;9.93;;;;;;;14.71;96.36;92027.59;5130088;28;20237;-73
2022/09/29 05:45:41;;;;;;;10.50;9.57;;;;;;;14.96;94.06;92023.28;5130446;28;20259;-75
2022/09/29 05:48:07;;;;;;;9.47;8.97;;;;;;;15.15;92.03;92048.06;5126398;27;20226;-77
2022/09/29 05:50:40;;;;;;;10.60;9.70;;;;;;;15.46;87.56;92042.44;5126355;28;20188;-77
2022/09/29 05:53:05;;;;;;;10.43;9.00;;;;;;;15.56;87.27;92055.22;5127942;27;20215;-75
2022/09/29 05:55:31;;;;;;;9.57;8.77;;;;;;;15.25;89.01;92012.72;5125432;28;20240;-76
2022/09/29 05:57:56;;;;;;;10.33;9.70;;;;;;;15.36;88.89;92064.59;5126609;28;20231;-74
2022/09/29 06:00:21;;;;;;;10.27;9.37;;;;;;;15.52;89.33;92075.34;5126688;28;20219;-76
2022/09/29 06:02:47;;;;;;;10.70;9.80;;;;;;;15.79;88.38;92077.47;5126499;27;20223;-74
2022/09/29 06:05:12;;;;;;;10.93;9.77;;;;;;;15.60;87.57;92032.44;5128547;28;20213;-75
2022/09/29 06:07:38;;;;;;;11.60;10.60;;;;;;;15.89;87.75;92074.47;5123309;28;20215;-74
2022/09/29 06:10:03;;;;;;;10.10;9.23;;;;;;;16.16;85.12;92081.78;5128401;28;20218;-74
2022/09/29 06:12:33;;;;;;;9.53;8.90;;;;;;;15.95;83.63;92076.53;5128603;28;20215;-74
2022/09/29 06:14:59;;;;;;;11.57;9.63;;;;;;;15.94;85.23;92074.22;5122077;27;20214;-74
2022/09/29 06:17:24;;;;;;;10.57;9.73;;;;;;;15.95;85.94;92068.66;5128590;28;20256;-75
2022/09/29 06:19:51;;;;;;;10.43;9.73;;;;;;;16.00;83.84;92068.44;5128462;28;21024;-75
2022/09/29 06:22:18;;;;;;;10.37;9.67;;;;;;;16.21;83.92;92081.59;5125557;28;20227;-76
2022/09/29 06:24:43;;;;;;;10.10;9.50;;;;;;;16.39;82.43;92085.56;5125839;28;20197;-75
2022/09/29 06:27:09;;;;;;;11.03;10.13;;;;;;;16.40;82.44;92081.06;5125487;28;20239;-73
2022/09/29 06:29:35;;;;;;;9.77;8.83;;;;;;;16.54;80.55;92095.53;5129594;28;20191;-74
2022/09/29 06:32:01;;;;;;;9.57;8.90;;;;;;;16.54;80.02;92092.91;5126337;28;20220;-73
2022/09/29 06:34:26;;;;;;;10.10;9.17;;;;;;;16.24;81.48;92061.72;5127203;28;20295;-74
2022/09/29 06:39:36;;;;;;;14.83;10.97;;;;;;;16.31;83.87;92096.97;5127428;28;20225;-74
2022/09/29 06:42:02;;;;;;;9.23;8.73;;;;;;;16.49;83.18;92090.47;5127642;28;20219;-75
2022/09/29 06:44:29;;;;;;;9.23;8.50;;;;;;;16.04;83.36;92087.00;5128736;28;20195;-74
2022/09/29 06:46:55;;;;;;;10.10;9.50;;;;;;;16.17;82.82;92059.63;5127556;28;20284;-74
2022/09/29 06:49:22;;;;;;;9.43;8.80;;;;;;;17.04;78.92;92096.00;5128165;28;20250;-75
2022/09/29 06:51:49;;;;;;;9.87;9.07;;;;;;;17.32;76.38;92091.59;5127517;28;20207;-74
2022/09/29 06:54:17;;;;;;;8.70;8.20;;;;;;;17.47;75.83;92093.59;5127857;28;20190;-74
2022/09/29 06:56:47;;;;;;;9.73;9.13;;;;;;;17.49;75.40;92106.47;5127670;28;20196;-74
2022/09/29 06:59:12;;;;;;;8.67;8.17;;;;;;;17.30;75.88;92091.16;5127436;28;20215;-75
2022/09/29 07:01:37;;;;;;;9.13;8.63;;;;;;;17.31;75.03;92084.00;5127925;27;20213;-75
2022/09/29 07:04:03;;;;;;;8.77;8.20;;;;;;;17.80;74.32;92126.97;5128832;28;20260;-74
2022/09/29 07:06:29;;;;;;;8.77;8.27;;;;;;;17.92;74.26;92121.63;5129330;28;20179;-74
2022/09/29 07:08:56;;;;;;;10.00;8.97;;;;;;;17.69;75.88;92117.97;5127808;28;20207;-75
2022/09/29 07:11:21;;;;;;;8.70;7.97;;;;;;;18.02;71.88;92107.97;5128760;27;20191;-76
2022/09/29 07:13:48;;;;;;;9.80;8.80;;;;;;;18.00;72.56;92115.47;5126340;28;20239;-76
2022/09/29 07:16:14;;;;;;;10.23;9.17;;;;;;;18.02;72.92;92107.97;5128852;28;20225;-74
2022/09/29 07:18:41;;;;;;;9.93;9.03;;;;;;;18.24;72.59;92115.38;5127774;28;20283;-76
2022/09/29 07:21:09;;;;;;;9.60;8.83;;;;;;;17.96;73.01;92106.69;5128490;28;20175;-75
2022/09/29 07:23:35;;;;;;;10.43;9.50;;;;;;;18.26;72.54;92119.22;5127531;28;20231;-74
2022/09/29 07:26:01;;;;;;;10.27;9.37;;;;;;;18.08;71.63;92099.47;5128517;28;20731;-75
2022/09/29 07:28:28;;;;;;;10.73;9.80;;;;;;;17.85;75.24;92119.59;5130870;28;20231;-74
2022/09/29 07:31:02;;;;;;;9.67;8.93;;;;;;;18.21;73.34;92116.06;5132352;28;20180;-74
2022/09/29 07:33:29;;;;;;;10.13;9.33;;;;;;;18.24;71.41;92110.09;5129987;28;20228;-75
2022/09/29 07:35:54;;;;;;;9.77;8.80;;;;;;;18.43;70.17;92115.53;5131379;28;20207;-74
2022/09/29 07:38:20;;;;;;;9.73;9.07;;;;;;;18.57;70.73;92129.91;5131050;27;20223;-74
2022/09/29 07:40:45;;;;;;;9.77;8.97;;;;;;;18.25;70.70;92114.25;5131748;28;20194;-75
2022/09/29 07:43:11;;;;;;;9.57;8.93;;;;;;;18.34;70.43;92126.22;5130080;28;20217;-75
2022/09/29 07:45:36;;;;;;;9.83;9.03;;;;;;;18.15;73.08;92133.25;5130888;28;20199;-75
2022/09/29 07:48:02;;;;;;;11.17;9.70;;;;;;;18.25;71.76;92117.69;5131778;28;20211;-75
2022/09/29 07:50:27;;;;;;;13.47;10.33;;;;;;;18.27;72.38;92125.28;5131780;28;20195;-76
2022/09/29 07:52:53;;;;;;;10.27;9.37;;;;;;;18.10;74.47;92141.41;5132112;28;20226;-75
2022/09/29 07:55:20;;;;;;;10.27;9.40;;;;;;;18.30;73.29;92145.75;5132215;28;20240;-75
2022/09/29 07:58:00;;;;;;;11.67;10.63;;;;;;;18.42;73.20;92137.78;5129267;28;20224;-76
2022/09/29 08:00:27;;;;;;;9.57;8.87;;;;;;;18.41;72.50;92142.31;5132383;28;20245;-76
2022/09/29 08:02:53;;;;;;;9.93;9.07;;;;;;;18.54;71.08;92150.94;5131529;28;20226;-75
2022/09/29 08:05:18;;;;;;;10.97;9.43;;;;;;;18.71;71.98;92158.56;5132849;28;20173;-75
2022/09/29 08:07:44;;;;;;;10.97;9.93;;;;;;;18.88;70.09;92145.81;5129230;28;20227;-75
2022/09/29 08:10:09;;;;;;;11.03;9.63;;;;;;;18.86;70.49;92147.25;5131857;28;20189;-72
2022/09/29 08:12:35;;;;;;;10.43;9.63;;;;;;;18.72;69.27;92146.91;5128594;28;20242;-76
2022/09/29 08:15:00;;;;;;;9.77;9.17;;;;;;;18.67;70.85;92161.16;5129794;28;20235;-76
2022/09/29 08:17:26;;;;;;;10.93;9.80;;;;;;;18.53;72.24;92147.56;5130284;28;20224;-75
2022/09/29 08:19:51;;;;;;;11.27;9.27;;;;;;;18.69;70.67;92166.84;5130091;28;20180;-76
2022/09/29 08:22:16;;;;;;;10.40;9.50;;;;;;;18.46;72.39;92160.56;5130146;27;20228;-76
2022/09/29 08:24:42;;;;;;;9.47;8.57;;;;;;;18.28;72.85;92126.81;5130095;28;21162;-76
2022/09/29 08:27:08;;;;;;;9.47;8.50;;;;;;;18.50;72.48;92160.66;5129821;28;20227;-76
2022/09/29 08:29:33;;;;;;;9.67;8.87;;;;;;;18.34;71.38;92157.94;5131125;28;20196;-76
2022/09/29 08:31:58;;;;;;;9.60;8.90;;;;;;;18.31;72.44;92165.78;5129905;28;20231;-76
2022/09/29 08:34:24;;;;;;;9.73;9.03;;;;;;;18.23;72.25;92171.97;5131120;28;20216;-76
2022/09/29 08:36:50;;;;;;;10.53;9.57;;;;;;;17.63;75.37;92155.16;5129661;28;20251;-77
2022/09/29 08:39:18;;;;;;;9.93;8.93;;;;;;;17.85;74.90;92174.28;5130578;28;20189;-77
2022/09/29 08:41:52;;;;;;;9.87;8.80;;;;;;;17.92;75.64;92177.88;5129771;28;20205;-76
2022/09/29 08:45:05;;;;;;;10.00;9.27;;;;;;;17.62;77.40;92181.13;5129650;28;20195;-76
2022/09/29 08:47:38;;;;;;;9.40;8.80;;;;;;;17.97;75.71;92167.09;5073348;28;20596;-78
2022/09/29 08:50:13;;;;;;;10.00;9.23;;;;;;;17.81;79.20;92160.94;5130740;28;20172;-76
2022/09/29 08:52:48;;;;;;;11.50;10.20;;;;;;;17.88;77.95;92170.97;5130269;28;20220;-76
2022/09/29 08:55:16;;;;;;;11.20;9.73;;;;;;;17.90;76.52;92166.13;5131447;28;20213;-77
2022/09/29 08:57:43;;;;;;;11.97;8.67;;;;;;;18.23;74.10;92161.41;5129867;28;20231;-78
2022/09/29 09:00:12;;;;;;;9.07;8.47;;;;;;;18.33;73.46;92168.84;5129676;28;20342;-74
2022/09/29 09:03:08;;;;;;;10.50;9.80;;;;;;;18.21;76.21;92171.56;5127587;28;20288;-75
2022/09/29 09:05:45;;;;;;;10.57;9.43;;;;;;;18.24;76.46;92170.88;5130926;28;20187;-76
2022/09/29 09:08:21;;;;;;;10.30;9.50;;;;;;;18.49;74.50;92180.28;5129575;28;20244;-74
2022/09/29 09:11:05;;;;;;;12.90;9.77;;;;;;;17.90;77.14;92172.16;5130189;28;20188;-74
2022/09/29 09:13:39;;;;;;;11.00;10.10;;;;;;;17.67;78.56;92168.47;5125911;28;20243;-76
2022/09/29 09:16:29;;;;;;;16.07;9.77;;;;;;;18.23;77.66;92162.16;5129416;28;20219;-76
2022/09/29 09:19:19;;;;;;;10.93;9.73;;;;;;;17.75;80.38;92164.16;5128064;28;20272;-76
2022/09/29 09:22:04;;;;;;;9.40;8.77;;;;;;;18.00;72.60;92147.16;5129588;28;20916;-76
2022/09/29 09:25:11;;;;;;;15.67;9.33;;;;;;;18.08;73.64;92162.09;5127823;28;20212;-74
2022/09/29 09:27:43;;;;;;;9.60;8.43;;;;;;;18.68;71.20;92167.19;5107480;28;20227;-74
2022/09/29 09:30:14;;;;;;;9.57;8.97;;;;;;;18.80;68.89;92167.16;5107883;28;20195;-75
2022/09/29 09:32:53;;;;;;;9.17;8.60;;;;;;;18.67;68.20;92145.28;5118389;27;20224;-75
2022/09/29 09:35:37;;;;;;;9.43;8.73;;;;;;;18.75;66.10;92162.09;5128920;28;20211;-74
2022/09/29 09:38:26;;;;;;;9.60;9.00;;;;;;;19.13;62.32;92168.34;5128488;28;20261;-75
2022/09/29 09:40:56;;;;;;;10.30;9.40;;;;;;;19.10;64.55;92144.44;5129383;28;20198;-76
2022/09/29 09:43:47;;;;;;;8.77;8.27;;;;;;;18.74;66.63;92150.75;5128441;28;20239;-74
2022/09/29 09:46:34;;;;;;;10.23;9.53;;;;;;;18.86;68.79;92184.28;5125724;28;20183;-73
2022/09/29 09:49:27;;;;;;;9.90;8.87;;;;;;;18.99;67.56;92175.16;5128828;28;20206;-74
2022/09/29 09:51:59;;;;;;;8.60;8.10;;;;;;;19.28;61.22;92158.16;5128454;28;20246;-73
2022/09/29 09:54:37;;;;;;;10.10;9.10;;;;;;;19.73;63.16;92145.19;5127081;27;20248;-75
2022/09/29 09:57:24;;;;;;;9.60;9.00;;;;;;;19.98;60.85;92157.09;5127055;28;20271;-74
2022/09/29 10:00:29;;;;;;;8.50;8.10;;;;;;;20.23;59.76;92159.16;5129833;27;20260;-73
2022/09/29 10:02:56;;;;;;;8.90;8.40;;;;;;;20.75;58.54;92155.28;5109176;28;20279;-75
2022/09/29 10:05:44;;;;;;;10.00;8.60;;;;;;;21.28;60.77;92165.72;5128724;28;20192;-76
2022/09/29 10:08:14;;;;;;;9.18;8.43;;;;;;;21.21;58.87;92162.16;5128978;28;20241;-75
2022/09/29 10:10:41;;;;;;;9.87;8.73;;;;;;;21.10;62.04;92183.25;5127441;28;20170;-76
2022/09/29 10:13:12;;;;;;;13.57;8.80;;;;;;;20.87;63.23;92184.28;5127051;28;20254;-74
2022/09/29 10:15:47;;;;;;;10.27;9.43;;;;;;;21.09;58.64;92180.94;5128533;27;20222;-74
2022/09/29 10:18:16;;;;;;;8.52;7.95;;;;;;;20.09;57.08;92182.72;5128345;28;20285;-76
2022/09/29 10:20:41;;;;;;;9.13;8.53;;;;;;;20.50;57.32;92158.19;5126606;28;20211;-75
2022/09/29 10:23:27;;;;;;;8.20;7.70;;;;;;;20.97;53.80;92178.41;5129132;28;20776;-72
2022/09/29 10:25:56;;;;;;;9.00;8.32;;;;;;;20.91;54.92;92185.13;5128264;28;20238;-77
2022/09/29 10:28:23;;;;;;;8.55;8.15;;;;;;;21.25;53.76;92186.88;5125027;28;20242;-77
2022/09/29 10:30:49;;;;;;;9.68;8.75;;;;;;;21.62;53.92;92188.66;5127973;28;20170;-77
2022/09/29 10:33:20;;;;;;;9.65;9.15;;;;;;;21.86;54.79;92196.28;5127799;28;20246;-77
2022/09/29 10:35:48;;;;;;;8.05;7.22;;;;;;;21.99;49.94;92194.19;5127599;28;20209;-77
2022/09/29 10:38:23;;;;;;;8.63;7.97;;;;;;;21.74;51.92;92196.41;5129159;28;20221;-77
2022/09/29 10:40:57;;;;;;;8.88;8.00;;;;;;;22.01;53.26;92187.38;5128879;27;20228;-76
2022/09/29 10:43:26;;;;;;;8.27;7.80;;;;;;;21.85;50.16;92170.06;5127882;27;20234;-77
2022/09/29 10:45:57;;;;;;;8.57;8.07;;;;;;;21.86;47.77;92177.66;5130086;28;20276;-77
2022/09/29 10:48:24;;;;;;;8.55;7.93;;;;;;;22.32;48.98;92178.28;5125510;28;20221;-77
2022/09/29 10:50:52;;;;;;;8.23;7.72;;;;;;;22.37;46.30;92179.88;5127360;28;20203;-77
2022/09/29 10:53:39;;;;;;;8.50;7.80;;;;;;;22.39;47.11;92173.06;5125705;27;20221;-77
2022/09/29 10:56:24;;;;;;;8.95;8.27;;;;;;;21.96;48.89;92160.34;5125604;28;20205;-78
2022/09/29 10:58:56;;;;;;;8.65;8.10;;;;;;;22.21;48.41;92148.16;5125363;28;20230;-77
2022/09/29 11:01:21;;;;;;;8.07;7.28;;;;;;;21.79;48.19;92174.16;5125275;28;20185;-77
2022/09/29 11:03:53;;;;;;;8.93;8.20;;;;;;;21.88;50.50;92161.38;5125510;28;20247;-77
2022/09/29 11:06:26;;;;;;;8.25;7.50;;;;;;;22.23;48.85;92159.94;5126064;28;20197;-77
2022/09/29 11:09:00;;;;;;;7.55;7.15;;;;;;;22.45;49.12;92160.97;5128053;28;20307;-77
2022/09/29 11:11:51;;;;;;;8.15;7.75;;;;;;;22.02;48.53;92151.69;5127746;28;20205;-77
2022/09/29 11:14:27;;;;;;;7.78;7.40;;;;;;;22.15;48.90;92163.63;5126545;28;20205;-77
2022/09/29 11:16:56;;;;;;;8.18;7.55;;;;;;;21.94;49.34;92114.75;5127569;28;20237;-76
2022/09/29 11:19:22;;;;;;;7.85;7.45;;;;;;;22.49;48.54;92161.78;5128075;28;20186;-77
2022/09/29 11:21:56;;;;;;;8.65;8.15;;;;;;;22.60;47.86;92143.31;5128165;28;20241;-77
2022/09/29 11:24:45;;;;;;;7.75;7.38;;;;;;;22.64;48.38;92123.59;5125866;28;20231;-77
2022/09/29 11:27:17;;;;;;;7.93;7.38;;;;;;;23.03;47.35;92148.75;5125378;28;20229;-76
2022/09/29 11:30:05;;;;;;;8.13;7.47;;;;;;;22.69;47.69;92141.13;5128491;28;20258;-77
2022/09/29 11:32:39;;;;;;;8.32;7.65;;;;;;;22.87;47.78;92158.06;5127868;28;20222;-78
2022/09/29 11:35:12;;;;;;;8.45;7.93;;;;;;;23.11;47.07;92145.00;5128567;28;20213;-81
2022/09/29 11:37:37;;;;;;;7.93;7.18;;;;;;;23.07;49.61;92146.09;5129371;28;21007;-83
2022/09/29 11:40:27;;;;;;;8.13;7.63;;;;;;;22.81;48.62;92140.88;5127540;28;20186;-83
2022/09/29 11:43:17;;;;;;;7.95;7.55;;;;;;;22.76;46.67;92144.63;5127529;28;20245;-84